createdAt,value
2018-12-31T00:02:22.742Z,19.17
2018-12-31T00:05:02.743Z,18.80
2018-12-31T00:07:42.824Z,19.20
2018-12-31T00:10:22.726Z,19.90
2018-12-31T00:13:02.958Z,18.83
2018-12-31T00:15:42.988Z,19.97
2018-12-31T00:18:22.897Z,19.77
2018-12-31T00:21:02.958Z,19.80
2018-12-31T00:23:43.141Z,20.03
2018-12-31T00:26:23.359Z,20.17
2018-12-31T00:29:03.513Z,19.53
2018-12-31T00:31:43.893Z,20.53
2018-12-31T00:34:24.145Z,19.07
2018-12-31T00:37:04.238Z,20.37
2018-12-31T00:39:44.229Z,21.57
2018-12-31T00:42:24.317Z,20.40
2018-12-31T00:45:04.334Z,22.60
2018-12-31T00:47:44.589Z,20.63
2018-12-31T00:50:24.487Z,21.50
2018-12-31T00:53:04.673Z,23.97
2018-12-31T00:55:44.943Z,21.47
2018-12-31T00:58:24.964Z,22.90
2018-12-31T01:01:05.109Z,25.53
2018-12-31T01:03:45.617Z,23.93
2018-12-31T01:06:25.398Z,23.93
2018-12-31T01:09:05.563Z,23.63
2018-12-31T01:11:45.643Z,20.90
2018-12-31T01:14:26.053Z,24.00
2018-12-31T01:17:06.052Z,19.73
2018-12-31T01:19:46.025Z,23.13
2018-12-31T01:22:26.166Z,21.17
2018-12-31T01:24:53.828Z,21.13
2018-12-31T01:27:21.553Z,21.17
2018-12-31T01:29:49.477Z,19.00
2018-12-31T01:32:17.104Z,22.87
2018-12-31T01:34:44.736Z,19.13
2018-12-31T01:37:12.382Z,19.27
2018-12-31T01:39:40.014Z,18.13
2018-12-31T01:42:07.666Z,20.30
2018-12-31T01:44:35.322Z,18.87
2018-12-31T01:47:02.971Z,22.30
2018-12-31T01:49:30.606Z,17.70
2018-12-31T01:51:58.255Z,19.13
2018-12-31T01:54:25.906Z,20.13
2018-12-31T01:56:53.765Z,19.47
2018-12-31T01:59:21.435Z,21.00
2018-12-31T02:01:49.074Z,18.67
2018-12-31T02:04:16.718Z,18.13
2018-12-31T02:06:44.370Z,17.83
2018-12-31T02:09:12.013Z,20.90
2018-12-31T02:11:39.677Z,21.53
2018-12-31T02:14:07.356Z,18.03
2018-12-31T02:16:35.002Z,17.23
2018-12-31T02:19:02.681Z,20.97
2018-12-31T02:21:30.316Z,17.33
2018-12-31T02:23:57.965Z,18.53
2018-12-31T02:26:25.602Z,17.83
2018-12-31T02:28:53.256Z,18.03
2018-12-31T02:31:20.872Z,16.87
2018-12-31T02:33:48.519Z,20.43
2018-12-31T02:36:16.153Z,17.23
2018-12-31T02:38:43.897Z,18.60
2018-12-31T02:41:11.508Z,15.60
2018-12-31T02:43:39.162Z,19.97
2018-12-31T02:46:06.794Z,16.30
2018-12-31T02:48:34.746Z,14.93
2018-12-31T02:51:02.394Z,15.20
2018-12-31T02:53:30.016Z,18.70
2018-12-31T02:55:57.670Z,16.80
2018-12-31T02:58:25.283Z,15.90
2018-12-31T03:00:53.918Z,15.13
2018-12-31T03:03:21.570Z,19.10
2018-12-31T03:05:49.225Z,15.63
2018-12-31T03:08:18.150Z,16.20
2018-12-31T03:10:45.923Z,15.13
2018-12-31T03:13:26.599Z,16.33
2018-12-31T03:16:06.558Z,14.37
2018-12-31T03:18:46.744Z,13.47
2018-12-31T03:21:25.065Z,13.73
2018-12-31T03:24:05.744Z,11.67
2018-12-31T03:26:45.974Z,13.63
2018-12-31T03:29:26.195Z,13.83
2018-12-31T03:32:06.057Z,13.37
2018-12-31T03:34:46.761Z,14.17
2018-12-31T03:37:27.397Z,14.40
2018-12-31T03:40:07.718Z,15.13
2018-12-31T03:42:47.923Z,16.30
2018-12-31T03:45:28.273Z,15.63
2018-12-31T03:48:08.062Z,15.30
2018-12-31T03:50:48.379Z,16.80
2018-12-31T03:53:28.467Z,16.23
2018-12-31T03:56:08.533Z,16.50
2018-12-31T03:58:48.426Z,15.80
2018-12-31T04:01:28.652Z,16.83
2018-12-31T04:04:08.561Z,17.70
2018-12-31T04:06:48.595Z,18.30
2018-12-31T04:09:28.864Z,16.50
2018-12-31T04:12:08.800Z,17.53
2018-12-31T04:14:48.918Z,17.53
2018-12-31T04:17:29.074Z,19.10
2018-12-31T04:20:11.934Z,19.83
2018-12-31T04:22:52.457Z,20.57
2018-12-31T04:25:32.568Z,20.57
2018-12-31T04:28:12.814Z,18.80
2018-12-31T04:30:53.205Z,17.87
2018-12-31T04:33:33.199Z,19.83
2018-12-31T04:36:13.559Z,18.70
2018-12-31T04:38:53.612Z,20.37
2018-12-31T04:41:33.922Z,21.80
2018-12-31T04:44:13.764Z,18.00
2018-12-31T04:46:54.009Z,21.13
2018-12-31T04:49:33.844Z,19.73
2018-12-31T04:52:13.902Z,21.23
2018-12-31T04:54:54.047Z,21.30
2018-12-31T04:57:34.233Z,19.83
2018-12-31T05:00:14.562Z,20.97
2018-12-31T05:02:54.490Z,19.33
2018-12-31T05:05:34.710Z,21.83
2018-12-31T05:08:14.695Z,21.47
2018-12-31T05:10:59.422Z,21.27
2018-12-31T05:13:39.861Z,19.93
2018-12-31T05:16:20.007Z,20.33
2018-12-31T05:19:00.074Z,19.43
2018-12-31T05:21:40.101Z,20.17
2018-12-31T05:24:20.244Z,20.40
2018-12-31T05:27:00.459Z,20.43
2018-12-31T05:29:40.318Z,17.87
2018-12-31T05:32:20.443Z,18.83
2018-12-31T05:35:00.423Z,17.47
2018-12-31T05:37:40.533Z,16.30
2018-12-31T05:40:08.173Z,15.70
2018-12-31T05:42:48.375Z,14.43
2018-12-31T05:45:28.594Z,14.80
2018-12-31T05:48:08.770Z,14.77
2018-12-31T05:50:48.732Z,14.47
2018-12-31T05:53:28.654Z,13.13
2018-12-31T05:56:08.775Z,13.60
2018-12-31T05:58:49.006Z,13.27
2018-12-31T06:01:29.894Z,12.57
2018-12-31T06:04:10.091Z,13.97
2018-12-31T06:06:50.398Z,14.57
2018-12-31T06:09:30.387Z,14.03
2018-12-31T06:12:10.430Z,12.10
2018-12-31T06:14:50.363Z,14.43
2018-12-31T06:17:30.702Z,13.87
2018-12-31T06:20:10.542Z,12.20
2018-12-31T06:22:50.650Z,15.57
2018-12-31T06:25:30.676Z,15.30
2018-12-31T06:28:10.845Z,14.43
2018-12-31T06:30:50.846Z,12.80
2018-12-31T06:33:30.918Z,13.93
2018-12-31T06:36:11.168Z,13.20
2018-12-31T06:38:51.306Z,13.63
2018-12-31T06:41:31.401Z,13.57
2018-12-31T06:44:11.573Z,13.67
2018-12-31T06:46:51.673Z,11.57
2018-12-31T06:49:31.816Z,15.00
2018-12-31T06:52:12.102Z,12.17
2018-12-31T06:54:52.022Z,11.97
2018-12-31T06:57:32.390Z,13.67
2018-12-31T07:00:12.318Z,12.73
2018-12-31T07:02:52.637Z,13.73
2018-12-31T07:05:32.606Z,15.13
2018-12-31T07:08:12.885Z,13.57
2018-12-31T07:10:52.986Z,14.50
2018-12-31T07:13:33.462Z,14.83
2018-12-31T07:16:13.571Z,13.77
2018-12-31T07:18:53.634Z,16.23
2018-12-31T07:21:33.630Z,13.93
2018-12-31T07:24:13.681Z,13.20
2018-12-31T07:26:53.634Z,16.13
2018-12-31T07:29:33.678Z,15.60
2018-12-31T07:32:13.762Z,15.57
2018-12-31T07:34:53.993Z,13.77
2018-12-31T07:37:34.084Z,15.90
2018-12-31T07:40:14.816Z,15.00
2018-12-31T07:42:54.894Z,14.77
2018-12-31T07:45:34.990Z,13.83
2018-12-31T07:48:15.344Z,14.57
2018-12-31T07:50:55.518Z,14.27
2018-12-31T07:53:35.681Z,17.03
2018-12-31T07:56:16.488Z,13.07
2018-12-31T07:58:56.760Z,13.33
2018-12-31T08:01:36.926Z,14.67
2018-12-31T08:04:18.015Z,12.83
2018-12-31T08:06:58.296Z,11.93
2018-12-31T08:09:39.078Z,12.33
2018-12-31T08:12:19.346Z,13.37
2018-12-31T08:14:59.298Z,13.17
2018-12-31T08:17:39.206Z,13.23
2018-12-31T08:20:19.286Z,15.63
2018-12-31T08:22:59.402Z,12.70
2018-12-31T08:25:39.430Z,11.87
2018-12-31T08:28:19.491Z,12.83
2018-12-31T08:30:59.617Z,13.73
2018-12-31T08:33:39.778Z,11.87
2018-12-31T08:36:19.816Z,12.33
2018-12-31T08:39:00.118Z,13.23
2018-12-31T08:41:40.190Z,11.43
2018-12-31T08:44:20.431Z,12.43
2018-12-31T08:47:03.351Z,12.57
2018-12-31T08:49:43.734Z,11.57
2018-12-31T08:52:23.849Z,12.03
2018-12-31T08:55:03.888Z,12.87
2018-12-31T08:57:44.177Z,11.40
2018-12-31T09:00:24.170Z,12.27
2018-12-31T09:03:04.432Z,13.13
2018-12-31T09:05:45.375Z,12.07
2018-12-31T09:08:25.501Z,11.57
2018-12-31T09:11:05.474Z,12.00
2018-12-31T09:13:45.875Z,12.27
2018-12-31T09:16:25.771Z,11.17
2018-12-31T09:19:05.646Z,11.37
2018-12-31T09:21:45.564Z,11.87
2018-12-31T09:24:25.701Z,10.70
2018-12-31T09:27:05.767Z,11.13
2018-12-31T09:32:52.458Z,11.97
2018-12-31T09:35:32.367Z,11.27
2018-12-31T09:38:12.626Z,12.00
2018-12-31T09:40:52.407Z,9.83
2018-12-31T09:43:32.534Z,12.20
2018-12-31T09:46:12.558Z,11.00
2018-12-31T09:48:52.705Z,12.63
2018-12-31T09:51:33.419Z,11.47
2018-12-31T09:54:13.731Z,11.93
2018-12-31T09:56:53.672Z,10.90
2018-12-31T09:59:33.930Z,11.10
2018-12-31T10:02:14.790Z,11.93
2018-12-31T10:04:54.929Z,11.47
2018-12-31T10:07:35.617Z,12.60
2018-12-31T10:10:15.775Z,13.27
2018-12-31T10:15:52.042Z,14.57
2018-12-31T10:21:40.855Z,12.17
2018-12-31T10:24:17.318Z,11.80
2018-12-31T10:26:57.366Z,13.47
2018-12-31T10:29:37.715Z,14.40
2018-12-31T10:32:17.749Z,13.67
2018-12-31T10:34:57.837Z,13.87
2018-12-31T10:37:38.125Z,12.00
2018-12-31T10:40:18.016Z,14.13
2018-12-31T10:42:58.106Z,13.50
2018-12-31T10:48:41.570Z,12.60
2018-12-31T10:51:21.606Z,14.27
2018-12-31T10:54:01.833Z,11.67
2018-12-31T10:56:41.877Z,13.37
2018-12-31T10:59:22.517Z,13.57
2018-12-31T11:02:03.178Z,12.40
2018-12-31T11:04:43.298Z,14.33
2018-12-31T11:07:23.693Z,16.40
2018-12-31T11:10:04.581Z,13.37
2018-12-31T11:15:47.666Z,13.00
2018-12-31T11:18:27.757Z,11.63
2018-12-31T11:21:08.076Z,12.93
2018-12-31T11:23:47.922Z,12.17
2018-12-31T11:26:27.995Z,12.00
2018-12-31T11:29:08.218Z,12.47
2018-12-31T11:31:48.392Z,11.57
2018-12-31T11:34:28.566Z,12.27
2018-12-31T11:37:09.709Z,12.87
2018-12-31T11:39:49.828Z,12.27
2018-12-31T11:42:30.981Z,16.53
2018-12-31T11:47:53.728Z,13.57
2018-12-31T11:50:33.891Z,11.47
2018-12-31T11:53:15.034Z,10.73
2018-12-31T11:55:57.272Z,11.67
2018-12-31T12:01:41.314Z,13.67
2018-12-31T12:04:22.246Z,11.13
2018-12-31T12:07:04.349Z,11.30
2018-12-31T12:12:43.079Z,11.13
2018-12-31T12:15:23.464Z,10.47
2018-12-31T12:18:03.764Z,11.13
2018-12-31T12:20:32.309Z,10.17
2018-12-31T12:23:13.314Z,13.17
2018-12-31T12:25:53.418Z,10.37
2018-12-31T12:28:33.625Z,11.37
2018-12-31T12:31:13.811Z,8.93
2018-12-31T12:33:53.890Z,9.80
2018-12-31T12:36:34.232Z,9.73
2018-12-31T12:39:02.266Z,11.20
2018-12-31T12:42:15.579Z,9.30
2018-12-31T12:44:55.873Z,8.40
2018-12-31T12:47:36.904Z,9.77
2018-12-31T12:50:17.957Z,10.40
2018-12-31T12:52:58.036Z,9.63
2018-12-31T12:55:38.525Z,11.40
2018-12-31T12:58:18.539Z,10.70
2018-12-31T13:00:58.868Z,10.80
2018-12-31T13:03:39.048Z,9.33
2018-12-31T13:06:19.288Z,9.77
2018-12-31T13:08:59.650Z,10.10
2018-12-31T13:11:39.807Z,10.63
2018-12-31T13:14:19.929Z,10.90
2018-12-31T13:17:00.092Z,10.47
2018-12-31T13:19:41.126Z,10.77
2018-12-31T13:22:21.288Z,10.70
2018-12-31T13:25:02.099Z,11.57
2018-12-31T13:27:43.003Z,11.00
2018-12-31T13:30:23.311Z,11.67
2018-12-31T13:33:05.550Z,13.10
2018-12-31T13:38:50.830Z,10.20
2018-12-31T13:41:30.817Z,11.57
2018-12-31T13:44:11.039Z,9.53
2018-12-31T13:46:51.378Z,9.53
2018-12-31T13:49:31.505Z,9.37
2018-12-31T13:52:11.594Z,9.50
2018-12-31T13:54:51.706Z,10.60
2018-12-31T13:57:19.462Z,11.33
2018-12-31T13:59:47.135Z,11.13
2018-12-31T14:02:14.807Z,10.00
2018-12-31T14:04:42.956Z,8.27
2018-12-31T14:07:11.026Z,9.07
2018-12-31T14:09:39.200Z,11.07
2018-12-31T14:12:07.265Z,8.23
2018-12-31T14:14:35.274Z,7.90
2018-12-31T14:17:03.407Z,9.20
2018-12-31T14:19:31.711Z,7.93
2018-12-31T14:22:12.842Z,8.70
2018-12-31T14:24:53.406Z,9.10
2018-12-31T14:27:34.223Z,8.53
2018-12-31T14:30:16.839Z,9.13
2018-12-31T14:32:45.312Z,8.50
2018-12-31T14:35:13.418Z,10.77
2018-12-31T14:37:41.541Z,9.40
2018-12-31T14:40:09.896Z,9.77
2018-12-31T14:42:39.945Z,10.27
2018-12-31T14:45:08.098Z,9.97
2018-12-31T14:47:36.324Z,9.67
2018-12-31T14:50:05.025Z,8.97
2018-12-31T14:52:33.500Z,10.77
2018-12-31T14:55:01.785Z,10.37
2018-12-31T14:57:29.905Z,9.03
2018-12-31T14:59:57.879Z,10.60
2018-12-31T15:02:26.118Z,9.97
2018-12-31T15:04:54.629Z,8.70
2018-12-31T15:07:22.303Z,11.63
2018-12-31T15:09:50.094Z,10.33
2018-12-31T15:12:17.802Z,10.53
2018-12-31T15:14:45.530Z,11.10
2018-12-31T15:17:13.285Z,7.50
2018-12-31T15:19:54.241Z,8.40
2018-12-31T15:22:34.322Z,8.57
2018-12-31T15:25:14.388Z,9.77
2018-12-31T15:27:54.387Z,10.00
2018-12-31T15:30:34.459Z,10.13
2018-12-31T15:33:02.270Z,8.73
2018-12-31T15:35:42.680Z,9.57
2018-12-31T15:38:23.274Z,10.73
2018-12-31T15:41:03.847Z,8.33
2018-12-31T15:43:43.935Z,9.57
2018-12-31T15:46:23.878Z,9.17
2018-12-31T15:49:03.823Z,9.97
2018-12-31T15:51:43.979Z,10.23
2018-12-31T15:54:24.754Z,12.80
2018-12-31T15:57:05.406Z,11.47
2018-12-31T15:59:45.412Z,12.50
2018-12-31T16:02:25.514Z,11.03
2018-12-31T16:05:05.575Z,11.13
2018-12-31T16:07:46.207Z,11.90
2018-12-31T16:10:14.338Z,13.03
2018-12-31T16:13:35.985Z,11.67
2018-12-31T16:16:50.435Z,11.40
2018-12-31T16:19:30.618Z,11.67
2018-12-31T16:22:11.593Z,11.03
2018-12-31T16:24:51.852Z,11.77
2018-12-31T16:30:01.240Z,12.97
2018-12-31T16:32:42.056Z,12.60
2018-12-31T16:35:22.523Z,16.37
2018-12-31T16:37:50.737Z,12.63
2018-12-31T16:40:18.966Z,13.10
2018-12-31T16:42:59.680Z,14.07
2018-12-31T16:45:40.677Z,13.83
2018-12-31T16:48:24.213Z,16.20
2018-12-31T16:51:04.183Z,17.13
2018-12-31T16:53:44.145Z,15.73
2018-12-31T16:56:24.511Z,17.17
2018-12-31T16:59:04.654Z,17.30
2018-12-31T17:01:44.709Z,21.03
2018-12-31T17:04:24.754Z,18.00
2018-12-31T17:09:46.040Z,17.20
2018-12-31T17:12:26.059Z,19.50
2018-12-31T17:15:07.355Z,17.97
2018-12-31T17:17:48.379Z,16.10
2018-12-31T17:20:16.615Z,14.30
2018-12-31T17:22:56.897Z,15.47
2018-12-31T17:25:37.047Z,16.53
2018-12-31T17:28:18.155Z,15.07
2018-12-31T17:31:01.328Z,16.50
2018-12-31T17:33:41.492Z,16.30
2018-12-31T17:36:22.507Z,16.70
2018-12-31T17:38:50.678Z,18.27
2018-12-31T17:41:30.794Z,15.13
2018-12-31T17:44:12.000Z,16.90
2018-12-31T17:46:52.929Z,16.60
2018-12-31T17:49:34.075Z,15.23
2018-12-31T17:52:14.215Z,17.20
2018-12-31T17:54:54.222Z,15.93
2018-12-31T17:57:34.621Z,20.60
2018-12-31T18:00:15.759Z,17.13
2018-12-31T18:02:56.535Z,18.70
2018-12-31T18:05:37.169Z,19.13
2018-12-31T18:08:18.203Z,15.77
2018-12-31T18:10:59.231Z,19.73
2018-12-31T18:13:39.549Z,17.63
2018-12-31T18:16:07.640Z,17.13
2018-12-31T18:18:47.811Z,17.73
2018-12-31T18:21:28.651Z,15.60
2018-12-31T18:24:08.873Z,16.90
2018-12-31T18:26:50.026Z,16.67
2018-12-31T18:29:18.163Z,18.50
2018-12-31T18:32:18.177Z,16.17
2018-12-31T18:34:58.219Z,17.07
2018-12-31T18:37:26.878Z,17.48
2018-12-31T18:40:07.028Z,16.10
2018-12-31T18:42:48.013Z,18.27
2018-12-31T18:48:09.832Z,17.90
2018-12-31T18:50:49.954Z,16.73
2018-12-31T18:53:31.424Z,17.97
2018-12-31T18:55:59.666Z,20.83
2018-12-31T18:58:47.193Z,16.57
2018-12-31T19:01:27.490Z,19.50
2018-12-31T19:04:08.552Z,16.37
2018-12-31T19:06:37.016Z,15.57
2018-12-31T19:10:01.700Z,16.87
2018-12-31T19:13:16.420Z,16.77
2018-12-31T19:15:56.401Z,17.70
2018-12-31T19:18:36.520Z,17.77
2018-12-31T19:21:18.628Z,18.30
2018-12-31T19:23:59.676Z,18.63
2018-12-31T19:26:39.789Z,20.27
2018-12-31T19:29:20.672Z,20.83
2018-12-31T19:31:49.088Z,20.67
2018-12-31T19:34:29.581Z,22.00
2018-12-31T19:37:09.830Z,20.97
2018-12-31T19:39:50.736Z,21.37
2018-12-31T19:42:33.593Z,21.83
2018-12-31T19:45:13.745Z,23.13
2018-12-31T19:47:55.775Z,22.77
2018-12-31T19:50:36.196Z,24.23
2018-12-31T19:53:04.351Z,21.83
2018-12-31T19:55:44.948Z,25.90
2018-12-31T19:58:26.801Z,25.47
2018-12-31T20:01:07.458Z,29.13
2018-12-31T20:03:48.533Z,29.13
2018-12-31T20:06:28.780Z,26.60
2018-12-31T20:09:09.878Z,31.33
2018-12-31T20:11:50.719Z,29.60
2018-12-31T20:14:31.695Z,30.17
2018-12-31T20:17:12.970Z,27.00
2018-12-31T20:19:54.202Z,28.77
2018-12-31T20:22:34.944Z,30.67
2018-12-31T20:25:15.143Z,26.63
2018-12-31T20:27:56.091Z,26.43
2018-12-31T20:30:24.278Z,22.27
2018-12-31T20:33:05.010Z,27.80
2018-12-31T20:35:46.087Z,27.37
2018-12-31T20:38:27.364Z,24.57
2018-12-31T20:41:08.254Z,26.87
2018-12-31T20:43:49.207Z,26.60
2018-12-31T20:46:29.459Z,27.80
2018-12-31T20:49:10.623Z,26.20
2018-12-31T20:51:38.972Z,40.67
2018-12-31T20:54:22.995Z,36.97
2018-12-31T20:57:04.017Z,35.60
2018-12-31T20:59:44.967Z,29.43
2018-12-31T21:02:26.127Z,33.57
2018-12-31T21:05:06.328Z,36.70
2018-12-31T21:07:47.298Z,30.57
2018-12-31T21:10:28.478Z,33.50
2018-12-31T21:13:08.817Z,32.67
2018-12-31T21:15:49.892Z,32.30
2018-12-31T21:18:18.073Z,34.47
2018-12-31T21:20:58.826Z,32.80
2018-12-31T21:23:38.920Z,31.30
2018-12-31T21:26:19.811Z,39.77
2018-12-31T21:29:00.148Z,36.37
2018-12-31T21:31:41.126Z,29.70
2018-12-31T21:34:21.688Z,34.90
2018-12-31T21:37:02.556Z,37.10
2018-12-31T21:39:30.915Z,35.20
2018-12-31T21:42:12.920Z,37.27
2018-12-31T21:44:53.109Z,41.57
2018-12-31T21:47:21.263Z,40.43
2018-12-31T21:50:01.261Z,36.77
2018-12-31T21:52:42.258Z,42.13
2018-12-31T21:55:22.946Z,38.00
2018-12-31T21:58:04.379Z,40.83
2018-12-31T22:00:45.535Z,39.47
2018-12-31T22:03:13.811Z,37.60
2018-12-31T22:05:54.490Z,42.77
2018-12-31T22:08:35.607Z,39.57
2018-12-31T22:11:15.753Z,38.73
2018-12-31T22:16:36.162Z,42.10
2018-12-31T22:19:17.040Z,39.67
2018-12-31T22:21:58.145Z,35.90
2018-12-31T22:24:38.203Z,36.00
2018-12-31T22:27:20.267Z,40.53
2018-12-31T22:30:01.315Z,44.43
2018-12-31T22:32:42.496Z,37.00
2018-12-31T22:35:22.605Z,35.70
2018-12-31T22:38:03.199Z,35.90
2018-12-31T22:40:47.411Z,38.83
2018-12-31T22:43:28.052Z,37.33
2018-12-31T22:46:08.223Z,35.33
2018-12-31T22:48:50.221Z,37.87
2018-12-31T22:51:31.283Z,39.00
2018-12-31T22:54:11.734Z,40.90
2018-12-31T22:59:32.587Z,37.83
2018-12-31T23:02:13.443Z,37.90
2018-12-31T23:04:54.864Z,39.03
2018-12-31T23:07:35.857Z,42.70
2018-12-31T23:10:16.906Z,41.77
2018-12-31T23:12:57.818Z,42.13
2018-12-31T23:15:38.744Z,41.20
2018-12-31T23:18:19.794Z,39.80
2018-12-31T23:21:00.012Z,47.43
2018-12-31T23:23:40.026Z,59.83
2018-12-31T23:26:20.235Z,86.90
2018-12-31T23:29:00.281Z,102.97
2018-12-31T23:31:40.402Z,103.80
2018-12-31T23:34:20.447Z,101.90
2018-12-31T23:37:04.499Z,102.27
2018-12-31T23:39:44.762Z,100.40
2018-12-31T23:42:26.470Z,110.40
2018-12-31T23:45:06.491Z,116.23
2018-12-31T23:50:26.840Z,165.73
2018-12-31T23:53:07.305Z,179.63
2018-12-31T23:55:47.366Z,210.67
2018-12-31T23:58:27.469Z,222.63
